sensor_id;sensor_type;location;lat;lon;timestamp;pressure;altitude;pressure_sealevel;temperature;humidity
19759;BME280;10038;42.662;23.278;2022-11-15T00:02:07;70979.50;;;3.19;100.00
19759;BME280;10038;42.662;23.278;2022-11-15T00:04:34;70985.84;;;3.18;100.00
19759;BME280;10038;42.662;23.278;2022-11-15T00:07:02;70938.38;;;2.78;100.00
19759;BME280;10038;42.662;23.278;2022-11-15T00:09:29;70977.41;;;3.13;100.00
19759;BME280;10038;42.662;23.278;2022-11-15T00:11:56;70958.47;;;2.96;100.00
19759;BME280;10038;42.662;23.278;2022-11-15T00:14:23;70894.16;;;2.39;100.00
19759;BME280;10038;42.662;23.278;2022-11-15T00:16:49;70962.69;;;3.02;100.00
19759;BME280;10038;42.662;23.278;2022-11-15T00:19:16;70970.72;;;3.09;100.00
19759;BME280;10038;42.662;23.278;2022-11-15T00:21:43;70971.28;;;3.10;100.00
19759;BME280;10038;42.662;23.278;2022-11-15T00:24:11;70968.41;;;3.07;100.00
19759;BME280;10038;42.662;23.278;2022-11-15T00:26:38;70971.47;;;3.05;100.00
19759;BME280;10038;42.662;23.278;2022-11-15T00:29:05;70968.41;;;3.07;100.00
19759;BME280;10038;42.662;23.278;2022-11-15T00:31:31;70975.09;;;3.11;100.00
19759;BME280;10038;42.662;23.278;2022-11-15T00:33:58;70960.38;;;3.00;100.00
19759;BME280;10038;42.662;23.278;2022-11-15T00:36:25;70970.53;;;3.07;100.00
19759;BME280;10038;42.662;23.278;2022-11-15T00:38:52;70971.47;;;3.05;100.00
19759;BME280;10038;42.662;23.278;2022-11-15T00:41:20;70958.66;;;2.98;100.00
19759;BME280;10038;42.662;23.278;2022-11-15T00:43:47;70955.78;;;2.96;100.00
19759;BME280;10038;42.662;23.278;2022-11-15T00:46:13;70949.66;;;2.86;100.00
19759;BME280;10038;42.662;23.278;2022-11-15T00:48:40;70960.00;;;2.95;100.00
19759;BME280;10038;42.662;23.278;2022-11-15T00:51:07;70956.91;;;2.97;100.00
19759;BME280;10038;42.662;23.278;2022-11-15T00:53:34;70952.72;;;2.91;100.00
19759;BME280;10038;42.662;23.278;2022-11-15T00:56:01;70959.78;;;2.99;100.00
19759;BME280;10038;42.662;23.278;2022-11-15T00:58:29;70924.03;;;2.66;100.00
19759;BME280;10038;42.662;23.278;2022-11-15T01:00:56;70965.16;;;2.99;100.00
19759;BME280;10038;42.662;23.278;2022-11-15T01:03:22;70959.22;;;2.99;100.00
19759;BME280;10038;42.662;23.278;2022-11-15T01:05:49;70967.66;;;3.04;100.00
19759;BME280;10038;42.662;23.278;2022-11-15T01:08:16;70952.34;;;2.93;100.00
19759;BME280;10038;42.662;23.278;2022-11-15T01:10:43;70870.84;;;2.21;100.00
19759;BME280;10038;42.662;23.278;2022-11-15T01:13:09;70949.66;;;2.86;100.00
19759;BME280;10038;42.662;23.278;2022-11-15T01:15:40;70935.09;;;2.78;100.00
19759;BME280;10038;42.662;23.278;2022-11-15T01:18:07;70945.66;;;2.82;100.00
19759;BME280;10038;42.662;23.278;2022-11-15T01:20:34;70940.66;;;2.80;100.00
19759;BME280;10038;42.662;23.278;2022-11-15T01:23:01;70935.88;;;2.74;100.00
19759;BME280;10038;42.662;23.278;2022-11-15T01:25:28;70920.56;;;2.63;100.00
19759;BME280;10038;42.662;23.278;2022-11-15T01:27:54;70946.41;;;2.85;100.00
19759;BME280;10038;42.662;23.278;2022-11-15T01:30:21;70943.53;;;2.83;100.00
19759;BME280;10038;42.662;23.278;2022-11-15T01:32:49;70946.97;;;2.86;100.00
19759;BME280;10038;42.662;23.278;2022-11-15T01:35:16;70939.69;;;2.75;100.00
19759;BME280;10038;42.662;23.278;2022-11-15T01:37:43;70943.34;;;2.80;100.00
19759;BME280;10038;42.662;23.278;2022-11-15T01:40:10;70948.50;;;2.85;100.00
19759;BME280;10038;42.662;23.278;2022-11-15T01:42:37;70953.09;;;2.89;100.00
19759;BME280;10038;42.662;23.278;2022-11-15T01:45:05;70940.47;;;2.78;100.00
19759;BME280;10038;42.662;23.278;2022-11-15T01:47:36;70892.84;;;2.36;100.00
19759;BME280;10038;42.662;23.278;2022-11-15T01:50:10;70938.75;;;2.76;100.00
19759;BME280;10038;42.662;23.278;2022-11-15T01:52:39;70939.13;;;2.81;100.00
19759;BME280;10038;42.662;23.278;2022-11-15T01:55:09;70944.28;;;2.86;100.00
19759;BME280;10038;42.662;23.278;2022-11-15T01:57:38;70952.34;;;2.93;100.00
19759;BME280;10038;42.662;23.278;2022-11-15T02:00:07;70951.00;;;2.89;100.00
19759;BME280;10038;42.662;23.278;2022-11-15T02:02:36;70937.03;;;2.82;100.00
19759;BME280;10038;42.662;23.278;2022-11-15T02:05:06;70837.59;;;1.92;100.00
19759;BME280;10038;42.662;23.278;2022-11-15T02:07:34;70924.78;;;2.69;100.00
19759;BME280;10038;42.662;23.278;2022-11-15T02:10:05;70932.25;;;2.75;100.00
19759;BME280;10038;42.662;23.278;2022-11-15T02:12:33;70928.78;;;2.72;100.00
19759;BME280;10038;42.662;23.278;2022-11-15T02:15:00;70922.28;;;2.64;100.00
19759;BME280;10038;42.662;23.278;2022-11-15T02:17:44;70817.31;;;1.72;100.00
19759;BME280;10038;42.662;23.278;2022-11-15T02:20:39;70929.19;;;2.70;100.00
19759;BME280;10038;42.662;23.278;2022-11-15T02:23:31;70920.56;;;2.63;100.00
19759;BME280;10038;42.662;23.278;2022-11-15T02:26:24;70922.88;;;2.65;100.00
19759;BME280;10038;42.662;23.278;2022-11-15T02:28:59;70909.09;;;2.53;100.00
19759;BME280;10038;42.662;23.278;2022-11-15T02:31:36;70915.97;;;2.59;100.00
19759;BME280;10038;42.662;23.278;2022-11-15T02:34:13;70920.97;;;2.61;100.00
19759;BME280;10038;42.662;23.278;2022-11-15T02:36:51;70899.91;;;2.37;100.00
19759;BME280;10038;42.662;23.278;2022-11-15T02:39:26;70913.69;;;2.50;100.00
19759;BME280;10038;42.662;23.278;2022-11-15T02:41:57;70918.66;;;2.59;100.00
19759;BME280;10038;42.662;23.278;2022-11-15T02:44:32;70925.16;;;2.67;100.00
19759;BME280;10038;42.662;23.278;2022-11-15T02:47:03;70923.63;;;2.68;100.00
19759;BME280;10038;42.662;23.278;2022-11-15T02:49:40;70931.66;;;2.68;100.00
19759;BME280;10038;42.662;23.278;2022-11-15T02:52:07;70929.38;;;2.73;100.00
19759;BME280;10038;42.662;23.278;2022-11-15T02:54:35;70941.03;;;2.78;100.00
19759;BME280;10038;42.662;23.278;2022-11-15T02:57:04;70920.38;;;2.60;100.00
19759;BME280;10038;42.662;23.278;2022-11-15T02:59:48;70949.66;;;2.86;100.00
19759;BME280;10038;42.662;23.278;2022-11-15T03:02:31;70962.47;;;2.99;100.00
19759;BME280;10038;42.662;23.278;2022-11-15T03:05:07;70974.91;;;3.08;100.00
19759;BME280;10038;42.662;23.278;2022-11-15T03:07:37;70987.19;;;3.21;100.00
19759;BME280;10038;42.662;23.278;2022-11-15T03:10:10;70991.38;;;3.27;100.00
19759;BME280;10038;42.662;23.278;2022-11-15T03:12:43;71008.22;;;3.37;100.00
19759;BME280;10038;42.662;23.278;2022-11-15T03:15:18;71009.75;;;3.43;100.00
19759;BME280;10038;42.662;23.278;2022-11-15T03:17:53;71014.34;;;3.47;100.00
19759;BME280;10038;42.662;23.278;2022-11-15T03:20:24;71015.88;;;3.46;100.00
19759;BME280;10038;42.662;23.278;2022-11-15T03:22:54;71036.19;;;3.67;100.00
19759;BME280;10038;42.662;23.278;2022-11-15T03:25:24;71043.81;;;3.69;100.00
19759;BME280;10038;42.662;23.278;2022-11-15T03:27:54;70943.16;;;2.85;100.00
19759;BME280;10038;42.662;23.278;2022-11-15T03:30:22;71055.16;;;3.76;100.00
19759;BME280;10038;42.662;23.278;2022-11-15T03:32:53;71062.41;;;3.87;100.00
19759;BME280;10038;42.662;23.278;2022-11-15T03:35:23;71058.00;;;3.86;100.00
19759;BME280;10038;42.662;23.278;2022-11-15T03:37:54;71052.66;;;3.86;100.00
19759;BME280;10038;42.662;23.278;2022-11-15T03:40:40;71066.03;;;3.93;100.00
19759;BME280;10038;42.662;23.278;2022-11-15T03:43:11;71010.13;;;3.41;100.00
19759;BME280;10038;42.662;23.278;2022-11-15T03:45:45;71082.91;;;4.03;100.00
19759;BME280;10038;42.662;23.278;2022-11-15T03:48:18;71032.94;;;3.59;100.00
19759;BME280;10038;42.662;23.278;2022-11-15T03:50:48;71089.63;;;4.13;100.00
19759;BME280;10038;42.662;23.278;2022-11-15T03:53:16;71028.88;;;3.63;100.00
19759;BME280;10038;42.662;23.278;2022-11-15T03:55:43;71101.50;;;4.22;100.00
19759;BME280;10038;42.662;23.278;2022-11-15T03:58:10;71062.97;;;3.88;100.00
19759;BME280;10038;42.662;23.278;2022-11-15T04:00:37;71102.84;;;4.25;100.00
19759;BME280;10038;42.662;23.278;2022-11-15T04:03:03;71107.41;;;4.29;100.00
19759;BME280;10038;42.662;23.278;2022-11-15T04:05:32;71103.19;;;4.23;100.00
19759;BME280;10038;42.662;23.278;2022-11-15T04:07:58;71012.63;;;3.46;100.00
19759;BME280;10038;42.662;23.278;2022-11-15T04:10:25;71119.13;;;4.35;100.00
19759;BME280;10038;42.662;23.278;2022-11-15T04:12:52;71101.88;;;4.27;100.00
19759;BME280;10038;42.662;23.278;2022-11-15T04:15:20;71104.75;;;4.22;100.00
19759;BME280;10038;42.662;23.278;2022-11-15T04:17:49;71112.59;;;4.34;100.00
19759;BME280;10038;42.662;23.278;2022-11-15T04:20:18;71099.78;;;4.20;100.00
19759;BME280;10038;42.662;23.278;2022-11-15T04:23:06;71106.47;;;4.31;100.00
19759;BME280;10038;42.662;23.278;2022-11-15T04:25:53;71107.63;;;4.25;100.00
19759;BME280;10038;42.662;23.278;2022-11-15T04:28:21;71096.69;;;4.22;100.00
19759;BME280;10038;42.662;23.278;2022-11-15T04:30:48;71117.78;;;4.38;100.00
19759;BME280;10038;42.662;23.278;2022-11-15T04:33:15;71068.16;;;3.92;100.00
19759;BME280;10038;42.662;23.278;2022-11-15T04:35:42;71110.88;;;4.32;100.00
19759;BME280;10038;42.662;23.278;2022-11-15T04:38:11;71116.25;;;4.32;100.00
19759;BME280;10038;42.662;23.278;2022-11-15T04:40:37;71100.53;;;4.23;100.00
19759;BME280;10038;42.662;23.278;2022-11-15T04:43:04;71108.19;;;4.25;100.00
19759;BME280;10038;42.662;23.278;2022-11-15T04:45:31;71107.22;;;4.27;100.00
19759;BME280;10038;42.662;23.278;2022-11-15T04:47:58;71096.13;;;4.22;100.00
19759;BME280;10038;42.662;23.278;2022-11-15T04:50:25;71113.56;;;4.32;100.00
19759;BME280;10038;42.662;23.278;2022-11-15T04:52:53;71104.75;;;4.22;100.00
19759;BME280;10038;42.662;23.278;2022-11-15T04:55:21;71085.22;;;4.05;100.00
19759;BME280;10038;42.662;23.278;2022-11-15T04:57:57;71085.22;;;4.05;100.00
19759;BME280;10038;42.662;23.278;2022-11-15T05:00:24;71086.34;;;4.13;100.00
19759;BME280;10038;42.662;23.278;2022-11-15T05:02:50;71101.88;;;4.20;100.00
19759;BME280;10038;42.662;23.278;2022-11-15T05:05:34;71086.38;;;4.06;100.00
19759;BME280;10038;42.662;23.278;2022-11-15T05:08:01;71070.66;;;3.97;100.00
19759;BME280;10038;42.662;23.278;2022-11-15T05:10:30;71082.53;;;4.05;100.00
19759;BME280;10038;42.662;23.278;2022-11-15T05:12:56;71104.38;;;4.24;100.00
19759;BME280;10038;42.662;23.278;2022-11-15T05:15:23;71090.00;;;4.11;100.00
19759;BME280;10038;42.662;23.278;2022-11-15T05:17:50;71037.88;;;3.68;100.00
19759;BME280;10038;42.662;23.278;2022-11-15T05:20:17;71074.09;;;4.00;100.00
19759;BME280;10038;42.662;23.278;2022-11-15T05:22:43;71080.22;;;4.03;100.00
19759;BME280;10038;42.662;23.278;2022-11-15T05:25:10;71089.44;;;4.11;100.00
19759;BME280;10038;42.662;23.278;2022-11-15T05:27:38;71095.16;;;4.16;100.00
19759;BME280;10038;42.662;23.278;2022-11-15T05:30:06;71104.16;;;4.22;100.00
19759;BME280;10038;42.662;23.278;2022-11-15T05:32:33;71088.09;;;4.14;100.00
19759;BME280;10038;42.662;23.278;2022-11-15T05:35:00;71098.63;;;4.19;100.00
19759;BME280;10038;42.662;23.278;2022-11-15T05:37:28;71088.66;;;4.08;100.00
19759;BME280;10038;42.662;23.278;2022-11-15T05:39:55;71074.69;;;4.00;100.00
19759;BME280;10038;42.662;23.278;2022-11-15T05:42:22;71084.63;;;4.04;100.00
19759;BME280;10038;42.662;23.278;2022-11-15T05:44:50;71094.97;;;4.13;100.00
19759;BME280;10038;42.662;23.278;2022-11-15T05:47:19;71104.94;;;4.25;100.00
19759;BME280;10038;42.662;23.278;2022-11-15T05:49:47;71105.72;;;4.28;100.00
19759;BME280;10038;42.662;23.278;2022-11-15T05:52:19;71110.88;;;4.32;100.00
19759;BME280;10038;42.662;23.278;2022-11-15T05:54:47;71063.75;;;3.91;100.00
19759;BME280;10038;42.662;23.278;2022-11-15T05:57:14;71140.38;;;4.53;100.00
19759;BME280;10038;42.662;23.278;2022-11-15T05:59:41;71141.16;;;4.56;100.00
19759;BME280;10038;42.662;23.278;2022-11-15T06:02:10;71137.50;;;4.51;100.00
19759;BME280;10038;42.662;23.278;2022-11-15T06:04:37;71131.19;;;4.45;100.00
19759;BME280;10038;42.662;23.278;2022-11-15T06:07:04;71116.06;;;4.37;100.00
19759;BME280;10038;42.662;23.278;2022-11-15T06:09:31;71118.53;;;4.34;100.00
19759;BME280;10038;42.662;23.278;2022-11-15T06:11:57;71083.28;;;4.08;100.00
19759;BME280;10038;42.662;23.278;2022-11-15T06:14:24;71125.81;;;4.45;100.00
19759;BME280;10038;42.662;23.278;2022-11-15T06:16:51;71119.88;;;4.38;100.00
19759;BME280;10038;42.662;23.278;2022-11-15T06:19:19;71105.88;;;4.23;100.00
19759;BME280;10038;42.662;23.278;2022-11-15T06:21:46;71105.13;;;4.27;100.00
19759;BME280;10038;42.662;23.278;2022-11-15T06:24:13;71131.19;;;4.45;100.00
19759;BME280;10038;42.662;23.278;2022-11-15T06:26:40;71129.84;;;4.49;100.00
19759;BME280;10038;42.662;23.278;2022-11-15T06:29:06;71133.28;;;4.52;100.00
19759;BME280;10038;42.662;23.278;2022-11-15T06:31:34;71049.97;;;3.79;100.00
19759;BME280;10038;42.662;23.278;2022-11-15T06:34:01;71141.91;;;4.59;100.00
19759;BME280;10038;42.662;23.278;2022-11-15T06:36:29;71156.31;;;4.72;100.00
19759;BME280;10038;42.662;23.278;2022-11-15T06:38:56;71141.16;;;4.56;100.00
19759;BME280;10038;42.662;23.278;2022-11-15T06:41:23;71158.00;;;4.73;100.00
19759;BME280;10038;42.662;23.278;2022-11-15T06:43:50;71164.53;;;4.82;100.00
19759;BME280;10038;42.662;23.278;2022-11-15T06:46:17;71126.00;;;4.41;100.00
19759;BME280;10038;42.662;23.278;2022-11-15T06:48:43;71183.72;;;4.94;100.00
19759;BME280;10038;42.662;23.278;2022-11-15T06:51:10;71167.41;;;4.77;100.00
19759;BME280;10038;42.662;23.278;2022-11-15T06:53:38;71177.38;;;4.88;100.00
19759;BME280;10038;42.662;23.278;2022-11-15T06:56:06;71177.38;;;4.88;100.00
19759;BME280;10038;42.662;23.278;2022-11-15T06:58:34;71125.81;;;4.45;100.00
19759;BME280;10038;42.662;23.278;2022-11-15T07:01:02;71183.69;;;5.01;100.00
19759;BME280;10038;42.662;23.278;2022-11-15T07:03:30;71183.31;;;4.96;100.00
19759;BME280;10038;42.662;23.278;2022-11-15T07:05:57;71195.38;;;5.06;100.00
19759;BME280;10038;42.662;23.278;2022-11-15T07:08:27;71181.03;;;4.94;100.00
19759;BME280;10038;42.662;23.278;2022-11-15T07:10:57;71102.84;;;4.25;100.00
19759;BME280;10038;42.662;23.278;2022-11-15T07:13:25;71183.72;;;4.94;100.00
19759;BME280;10038;42.662;23.278;2022-11-15T07:15:52;71160.69;;;4.73;100.00
19759;BME280;10038;42.662;23.278;2022-11-15T07:18:19;71192.53;;;5.04;100.00
19759;BME280;10038;42.662;23.278;2022-11-15T07:20:46;71204.00;;;5.14;100.00
19759;BME280;10038;42.662;23.278;2022-11-15T07:23:13;71211.69;;;5.23;100.00
19759;BME280;10038;42.662;23.278;2022-11-15T07:25:40;71211.31;;;5.18;100.00
19759;BME280;10038;42.662;23.278;2022-11-15T07:28:08;71207.84;;;5.15;100.00
19759;BME280;10038;42.662;23.278;2022-11-15T07:30:35;71143.28;;;4.56;100.00
19759;BME280;10038;42.662;23.278;2022-11-15T07:33:02;71214.59;;;5.18;100.00
19759;BME280;10038;42.662;23.278;2022-11-15T07:35:29;71121.63;;;4.39;100.00
19759;BME280;10038;42.662;23.278;2022-11-15T07:37:57;71230.47;;;5.37;100.00
19759;BME280;10038;42.662;23.278;2022-11-15T07:40:25;71254.06;;;5.58;100.00
19759;BME280;10038;42.662;23.278;2022-11-15T07:42:52;71219.75;;;5.23;100.00
19759;BME280;10038;42.662;23.278;2022-11-15T07:45:21;71250.06;;;5.54;100.00
19759;BME280;10038;42.662;23.278;2022-11-15T07:47:49;71266.72;;;5.69;100.00
19759;BME280;10038;42.662;23.278;2022-11-15T07:50:16;71281.13;;;5.81;100.00
19759;BME280;10038;42.662;23.278;2022-11-15T07:52:44;71279.56;;;5.82;100.00
19759;BME280;10038;42.662;23.278;2022-11-15T07:55:11;71293.81;;;5.92;100.00
19759;BME280;10038;42.662;23.278;2022-11-15T07:57:38;71305.91;;;6.03;100.00
19759;BME280;10038;42.662;23.278;2022-11-15T08:00:06;71303.03;;;6.01;100.00
19759;BME280;10038;42.662;23.278;2022-11-15T08:02:35;71315.69;;;6.12;100.00
19759;BME280;10038;42.662;23.278;2022-11-15T08:05:01;71311.06;;;6.08;100.00
19759;BME280;10038;42.662;23.278;2022-11-15T08:07:30;71293.59;;;5.97;100.00
19759;BME280;10038;42.662;23.278;2022-11-15T08:09:57;71314.91;;;6.09;100.00
19759;BME280;10038;42.662;23.278;2022-11-15T08:12:24;71309.16;;;6.11;100.00
19759;BME280;10038;42.662;23.278;2022-11-15T08:14:51;71329.50;;;6.24;100.00
19759;BME280;10038;42.662;23.278;2022-11-15T08:17:18;71316.06;;;6.17;100.00
19759;BME280;10038;42.662;23.278;2022-11-15T08:19:46;71306.09;;;6.06;100.00
19759;BME280;10038;42.662;23.278;2022-11-15T08:22:13;71313.75;;;6.08;100.00
19759;BME280;10038;42.662;23.278;2022-11-15T08:24:40;71295.91;;;5.99;100.00
19759;BME280;10038;42.662;23.278;2022-11-15T08:27:07;71220.13;;;5.28;100.00
19759;BME280;10038;42.662;23.278;2022-11-15T08:29:40;71256.38;;;5.60;100.00
19759;BME280;10038;42.662;23.278;2022-11-15T08:32:08;71295.13;;;5.96;100.00
19759;BME280;10038;42.662;23.278;2022-11-15T08:34:34;71293.59;;;5.97;100.00
19759;BME280;10038;42.662;23.278;2022-11-15T08:37:03;71251.19;;;5.55;100.00
19759;BME280;10038;42.662;23.278;2022-11-15T08:39:30;71249.47;;;5.54;100.00
19759;BME280;10038;42.662;23.278;2022-11-15T08:41:57;71223.97;;;5.29;100.00
19759;BME280;10038;42.662;23.278;2022-11-15T08:44:24;71273.63;;;5.75;100.00
19759;BME280;10038;42.662;23.278;2022-11-15T08:46:51;71284.00;;;5.84;100.00
19759;BME280;10038;42.662;23.278;2022-11-15T08:49:18;71305.69;;;6.08;100.00
19759;BME280;10038;42.662;23.278;2022-11-15T08:51:45;71338.13;;;6.31;100.00
19759;BME280;10038;42.662;23.278;2022-11-15T08:54:13;71354.06;;;6.43;100.00
19759;BME280;10038;42.662;23.278;2022-11-15T08:56:40;71350.22;;;6.42;100.00
19759;BME280;10038;42.662;23.278;2022-11-15T08:59:07;71374.78;;;6.68;100.00
19759;BME280;10038;42.662;23.278;2022-11-15T09:01:34;71388.81;;;6.76;100.00
19759;BME280;10038;42.662;23.278;2022-11-15T09:04:01;71410.13;;;6.94;99.61
19759;BME280;10038;42.662;23.278;2022-11-15T09:06:29;71443.53;;;7.24;99.50
19759;BME280;10038;42.662;23.278;2022-11-15T09:08:56;71459.09;;;7.37;98.93
19759;BME280;10038;42.662;23.278;2022-11-15T09:11:24;71425.09;;;7.07;99.29
19759;BME280;10038;42.662;23.278;2022-11-15T09:13:52;71458.16;;;7.39;98.00
19759;BME280;10038;42.662;23.278;2022-11-15T09:16:19;71414.16;;;6.98;97.05
19759;BME280;10038;42.662;23.278;2022-11-15T09:18:46;71483.13;;;7.56;96.82
19759;BME280;10038;42.662;23.278;2022-11-15T09:21:13;71491.16;;;7.70;95.76
19759;BME280;10038;42.662;23.278;2022-11-15T09:23:40;71441.25;;;7.22;94.73
19759;BME280;10038;42.662;23.278;2022-11-15T09:26:07;71488.50;;;7.63;95.06
19759;BME280;10038;42.662;23.278;2022-11-15T09:28:36;71506.19;;;7.76;95.16
19759;BME280;10038;42.662;23.278;2022-11-15T09:31:05;71440.25;;;7.23;94.67
19759;BME280;10038;42.662;23.278;2022-11-15T09:33:32;71545.00;;;8.12;93.59
19759;BME280;10038;42.662;23.278;2022-11-15T09:36:04;71536.34;;;8.05;92.94
19759;BME280;10038;42.662;23.278;2022-11-15T09:38:32;71575.41;;;8.37;92.09
19759;BME280;10038;42.662;23.278;2022-11-15T09:41:19;71564.06;;;8.29;91.55
19759;BME280;10038;42.662;23.278;2022-11-15T09:43:59;71465.81;;;7.48;91.53
19759;BME280;10038;42.662;23.278;2022-11-15T09:46:40;71539.25;;;8.07;91.59
19759;BME280;10038;42.662;23.278;2022-11-15T09:49:16;71528.84;;;7.98;92.66
19759;BME280;10038;42.662;23.278;2022-11-15T09:51:46;71531.34;;;8.03;92.66
19759;BME280;10038;42.662;23.278;2022-11-15T09:54:23;71550.94;;;8.20;92.11
19759;BME280;10038;42.662;23.278;2022-11-15T09:56:53;71569.59;;;8.39;90.75
19759;BME280;10038;42.662;23.278;2022-11-15T09:59:49;71608.44;;;8.75;89.46
19759;BME280;10038;42.662;23.278;2022-11-15T10:02:35;71675.22;;;9.31;87.72
19759;BME280;10038;42.662;23.278;2022-11-15T10:05:11;71714.63;;;9.68;86.42
19759;BME280;10038;42.662;23.278;2022-11-15T10:07:45;71741.22;;;9.91;84.53
19759;BME280;10038;42.662;23.278;2022-11-15T10:10:19;71858.31;;;10.91;81.57
19759;BME280;10038;42.662;23.278;2022-11-15T10:12:50;71974.75;;;11.95;76.86
19759;BME280;10038;42.662;23.278;2022-11-15T10:15:20;72110.97;;;13.16;71.91
19759;BME280;10038;42.662;23.278;2022-11-15T10:18:09;72096.69;;;12.98;71.42
19759;BME280;10038;42.662;23.278;2022-11-15T10:20:49;72236.91;;;14.20;66.90
19759;BME280;10038;42.662;23.278;2022-11-15T10:23:18;72259.69;;;14.43;64.95
19759;BME280;10038;42.662;23.278;2022-11-15T10:25:46;72418.22;;;15.83;61.90
19759;BME280;10038;42.662;23.278;2022-11-15T10:28:15;72559.31;;;17.05;57.38
19759;BME280;10038;42.662;23.278;2022-11-15T10:30:50;72730.53;;;18.59;52.36
19759;BME280;10038;42.662;23.278;2022-11-15T10:33:26;72732.28;;;18.60;52.19
19759;BME280;10038;42.662;23.278;2022-11-15T10:36:16;72806.72;;;19.25;49.01
19759;BME280;10038;42.662;23.278;2022-11-15T10:38:56;72906.84;;;20.12;47.67
19759;BME280;10038;42.662;23.278;2022-11-15T10:41:30;72814.44;;;19.34;46.92
19759;BME280;10038;42.662;23.278;2022-11-15T10:44:19;72813.72;;;19.31;48.49
19759;BME280;10038;42.662;23.278;2022-11-15T10:47:04;72843.97;;;19.57;47.50
19759;BME280;10038;42.662;23.278;2022-11-15T10:49:32;72798.72;;;19.20;47.93
19759;BME280;10038;42.662;23.278;2022-11-15T10:52:02;72891.69;;;19.98;47.25
19759;BME280;10038;42.662;23.278;2022-11-15T10:54:34;72875.41;;;19.84;47.16
19759;BME280;10038;42.662;23.278;2022-11-15T10:57:06;72949.63;;;20.44;44.93
19759;BME280;10038;42.662;23.278;2022-11-15T10:59:38;72885.56;;;19.88;46.34
19759;BME280;10038;42.662;23.278;2022-11-15T11:02:31;72977.91;;;20.73;43.89
19759;BME280;10038;42.662;23.278;2022-11-15T11:04:59;72963.66;;;20.66;43.39
19759;BME280;10038;42.662;23.278;2022-11-15T11:07:28;72876.56;;;19.85;45.68
19759;BME280;10038;42.662;23.278;2022-11-15T11:10:00;73026.84;;;21.15;43.38
19759;BME280;10038;42.662;23.278;2022-11-15T11:12:29;72968.59;;;20.65;44.00
19759;BME280;10038;42.662;23.278;2022-11-15T11:14:59;73107.84;;;21.86;41.79
19759;BME280;10038;42.662;23.278;2022-11-15T11:17:36;73205.53;;;22.65;39.76
19759;BME280;10038;42.662;23.278;2022-11-15T11:20:16;73250.47;;;23.14;38.76
19759;BME280;10038;42.662;23.278;2022-11-15T11:22:56;73208.75;;;22.73;39.03
19759;BME280;10038;42.662;23.278;2022-11-15T11:25:36;73210.66;;;22.77;38.88
19759;BME280;10038;42.662;23.278;2022-11-15T11:28:20;73109.59;;;21.87;39.85
19759;BME280;10038;42.662;23.278;2022-11-15T11:31:00;73164.41;;;22.34;38.45
19759;BME280;10038;42.662;23.278;2022-11-15T11:33:32;73097.94;;;21.77;39.48
19759;BME280;10038;42.662;23.278;2022-11-15T11:36:11;72996.53;;;20.89;41.62
19759;BME280;10038;42.662;23.278;2022-11-15T11:38:51;73078.25;;;21.62;40.81
19759;BME280;10038;42.662;23.278;2022-11-15T11:41:43;73099.66;;;21.78;39.82
19759;BME280;10038;42.662;23.278;2022-11-15T11:44:22;73123.75;;;22.02;39.16
19759;BME280;10038;42.662;23.278;2022-11-15T11:46:55;73101.44;;;21.80;39.76
19759;BME280;10038;42.662;23.278;2022-11-15T11:49:30;73075.94;;;21.60;40.05
19759;BME280;10038;42.662;23.278;2022-11-15T11:52:02;73054.22;;;21.39;40.46
19759;BME280;10038;42.662;23.278;2022-11-15T11:54:36;72949.94;;;20.49;42.00
19759;BME280;10038;42.662;23.278;2022-11-15T11:57:10;72935.66;;;20.32;42.31
19759;BME280;10038;42.662;23.278;2022-11-15T11:59:43;72934.78;;;20.36;42.72
19759;BME280;10038;42.662;23.278;2022-11-15T12:02:16;72769.75;;;18.88;46.19
19759;BME280;10038;42.662;23.278;2022-11-15T12:04:49;72791.19;;;19.14;46.31
19759;BME280;10038;42.662;23.278;2022-11-15T12:07:21;72887.91;;;19.90;44.91
19759;BME280;10038;42.662;23.278;2022-11-15T12:09:55;72973.97;;;20.72;42.99
19759;BME280;10038;42.662;23.278;2022-11-15T12:12:29;73049.72;;;21.38;41.33
19759;BME280;10038;42.662;23.278;2022-11-15T12:15:01;73039.25;;;21.29;40.07
19759;BME280;10038;42.662;23.278;2022-11-15T12:17:30;73127.84;;;22.05;39.63
19759;BME280;10038;42.662;23.278;2022-11-15T12:20:02;72904.50;;;20.10;41.30
19759;BME280;10038;42.662;23.278;2022-11-15T12:22:36;73006.59;;;21.00;40.40
19759;BME280;10038;42.662;23.278;2022-11-15T12:25:14;72992.72;;;20.81;41.41
19759;BME280;10038;42.662;23.278;2022-11-15T12:27:44;72901.59;;;20.07;42.92
19759;BME280;10038;42.662;23.278;2022-11-15T12:30:16;72806.72;;;19.25;44.25
19759;BME280;10038;42.662;23.278;2022-11-15T12:32:50;72684.56;;;18.19;46.60
19759;BME280;10038;42.662;23.278;2022-11-15T12:35:28;72670.63;;;18.07;47.92
19759;BME280;10038;42.662;23.278;2022-11-15T12:37:57;72566.03;;;17.16;51.05
19759;BME280;10038;42.662;23.278;2022-11-15T12:40:32;72504.47;;;16.63;51.15
19759;BME280;10038;42.662;23.278;2022-11-15T12:45:44;72481.81;;;16.43;53.53
19759;BME280;10038;42.662;23.278;2022-11-15T12:55:00;72393.69;;;15.59;56.90
19759;BME280;10038;42.662;23.278;2022-11-15T12:57:42;72255.47;;;14.37;57.00
19759;BME280;10038;42.662;23.278;2022-11-15T13:00:42;72274.59;;;14.53;60.37
19759;BME280;10038;42.662;23.278;2022-11-15T13:03:43;72236.41;;;14.30;61.84
19759;BME280;10038;42.662;23.278;2022-11-15T13:06:38;72194.59;;;13.84;62.82
19759;BME280;10038;42.662;23.278;2022-11-15T13:09:51;72134.69;;;13.36;65.35
19759;BME280;10038;42.662;23.278;2022-11-15T13:12:53;72098.78;;;13.05;66.88
19759;BME280;10038;42.662;23.278;2022-11-15T13:15:45;72104.47;;;13.00;67.09
19759;BME280;10038;42.662;23.278;2022-11-15T13:18:41;72056.19;;;12.63;66.74
19759;BME280;10038;42.662;23.278;2022-11-15T13:21:21;72029.31;;;12.44;69.40